createdAt,value
2022-08-09T00:00:29.434Z,4.18
2022-08-09T00:03:00.313Z,4.68
2022-08-09T00:06:17.559Z,4.97
2022-08-09T00:08:32.669Z,6.00
2022-08-09T00:11:05.926Z,4.95
2022-08-09T00:13:52.698Z,4.65
2022-08-09T00:16:26.277Z,5.03
2022-08-09T00:19:12.802Z,5.00
2022-08-09T00:21:56.616Z,5.60
2022-08-09T00:24:29.814Z,6.75
2022-08-09T00:27:03.509Z,6.47
2022-08-09T00:30:10.335Z,7.65
2022-08-09T00:32:25.216Z,7.55
2022-08-09T00:34:59.521Z,8.57
2022-08-09T00:37:32.551Z,8.55
2022-08-09T00:40:12.038Z,8.32
2022-08-09T00:44:13.563Z,8.38
2022-08-09T00:45:39.548Z,8.70
2022-08-09T00:48:22.051Z,9.35
2022-08-09T00:50:53.041Z,9.48
2022-08-09T00:53:24.258Z,9.57
2022-08-09T00:56:04.842Z,9.88
2022-08-09T00:58:42.649Z,9.80
2022-08-09T01:01:44.442Z,9.80
2022-08-09T01:04:27.539Z,9.63
2022-08-09T01:07:37.590Z,9.07
2022-08-09T01:10:40.090Z,9.10
2022-08-09T01:13:59.122Z,9.00
2022-08-09T01:16:38.907Z,9.38
2022-08-09T01:20:01.809Z,9.73
2022-08-09T01:24:01.153Z,10.02
2022-08-09T01:26:25.368Z,8.10
2022-08-09T01:28:56.771Z,7.90
2022-08-09T01:32:30.906Z,8.98
2022-08-09T01:34:27.406Z,9.90
2022-08-09T01:37:02.520Z,10.30
2022-08-09T01:39:39.050Z,9.40
2022-08-09T01:42:12.838Z,9.00
2022-08-09T01:44:43.507Z,8.90
2022-08-09T01:47:17.449Z,8.52
2022-08-09T01:52:27.153Z,9.00
2022-08-09T01:55:00.834Z,7.88
2022-08-09T01:57:44.323Z,8.70
2022-08-09T02:00:34.459Z,8.50
2022-08-09T02:03:11.370Z,9.00
2022-08-09T02:06:03.453Z,9.25
2022-08-09T02:08:58.731Z,10.05
2022-08-09T02:11:42.126Z,10.88
2022-08-09T02:14:15.112Z,10.25
2022-08-09T02:17:14.755Z,11.65
2022-08-09T02:19:48.931Z,12.38
2022-08-09T02:22:48.377Z,11.32
2022-08-09T02:25:24.763Z,11.55
2022-08-09T02:28:05.829Z,10.63
2022-08-09T02:31:07.038Z,11.50
2022-08-09T02:34:06.788Z,11.30
2022-08-09T02:36:42.273Z,11.45
2022-08-09T02:39:34.016Z,11.43
2022-08-09T02:42:19.193Z,11.55
2022-08-09T02:45:06.736Z,10.73
2022-08-09T02:47:57.999Z,11.45
2022-08-09T02:50:44.240Z,12.05
2022-08-09T02:53:31.439Z,11.73
2022-08-09T02:56:08.230Z,11.55
2022-08-09T02:58:38.028Z,11.20
2022-08-09T03:01:21.597Z,11.55
2022-08-09T03:04:18.313Z,11.50
2022-08-09T03:06:50.729Z,12.00
2022-08-09T03:09:23.575Z,10.85
2022-08-09T03:12:06.054Z,11.68
2022-08-09T03:17:10.898Z,12.27
2022-08-09T03:19:58.205Z,10.80
2022-08-09T03:22:42.102Z,11.68
2022-08-09T03:25:26.888Z,9.70
2022-08-09T03:28:11.438Z,11.02
2022-08-09T03:30:44.388Z,9.77
2022-08-09T03:33:19.437Z,10.18
2022-08-09T03:36:13.510Z,9.70
2022-08-09T03:38:43.476Z,10.07
2022-08-09T03:41:18.369Z,10.65
2022-08-09T03:46:37.232Z,9.60
2022-08-09T03:49:10.693Z,8.20
2022-08-09T03:51:58.261Z,8.45
2022-08-09T03:54:38.488Z,9.60
2022-08-09T03:57:20.084Z,9.80
2022-08-09T03:59:54.436Z,8.65
2022-08-09T04:02:28.365Z,8.90
2022-08-09T04:05:06.562Z,8.82
2022-08-09T04:07:56.439Z,8.82
2022-08-09T04:10:30.503Z,8.73
2022-08-09T04:13:12.361Z,9.20
2022-08-09T04:16:19.802Z,9.10
2022-08-09T04:18:39.916Z,9.27
2022-08-09T04:21:14.136Z,9.07
2022-08-09T04:23:54.163Z,8.45
2022-08-09T04:26:35.213Z,8.60
2022-08-09T04:29:15.655Z,7.95
2022-08-09T04:31:47.302Z,9.50
2022-08-09T04:34:18.810Z,8.45
2022-08-09T04:36:59.385Z,8.23
2022-08-09T04:39:32.384Z,8.50
2022-08-09T04:42:12.171Z,9.48
2022-08-09T04:44:49.099Z,9.25
2022-08-09T04:47:19.223Z,9.02
2022-08-09T04:49:54.751Z,8.50
2022-08-09T04:52:45.294Z,8.80
2022-08-09T04:55:14.430Z,9.50
2022-08-09T04:57:59.069Z,8.23
2022-08-09T05:00:36.084Z,8.70
2022-08-09T05:03:12.867Z,8.88
2022-08-09T05:06:06.414Z,9.07
2022-08-09T05:08:43.997Z,7.60
2022-08-09T05:11:15.927Z,8.27
2022-08-09T05:13:47.257Z,8.65
2022-08-09T05:16:19.843Z,9.27
2022-08-09T05:18:59.169Z,8.57
2022-08-09T05:21:29.811Z,8.48
2022-08-09T05:24:04.013Z,8.27
2022-08-09T05:26:45.970Z,8.77
2022-08-09T05:29:24.529Z,8.75
2022-08-09T05:32:05.808Z,8.57
2022-08-09T05:34:35.478Z,7.43
2022-08-09T05:37:11.342Z,8.15
2022-08-09T05:39:45.011Z,7.97
2022-08-09T05:42:17.509Z,9.07
2022-08-09T05:44:55.134Z,7.95
2022-08-09T05:47:30.343Z,7.90
2022-08-09T05:50:30.772Z,7.57
2022-08-09T05:52:54.140Z,6.97
2022-08-09T05:55:24.799Z,6.78
2022-08-09T05:57:58.320Z,7.95
2022-08-09T06:00:32.973Z,8.20
2022-08-09T06:03:03.342Z,8.70
2022-08-09T06:05:50.570Z,8.80
2022-08-09T06:08:28.778Z,9.68
2022-08-09T06:10:58.274Z,10.70
2022-08-09T06:13:34.087Z,10.35
2022-08-09T06:16:06.943Z,10.57
2022-08-09T06:18:38.514Z,10.38
2022-08-09T06:21:11.130Z,10.88
2022-08-09T06:23:57.627Z,9.90
2022-08-09T06:26:34.187Z,9.60
2022-08-09T06:29:05.524Z,9.65
2022-08-09T06:31:39.954Z,9.15
2022-08-09T06:34:29.910Z,9.85
2022-08-09T06:37:02.830Z,10.07
2022-08-09T06:39:39.658Z,9.32
2022-08-09T06:42:24.840Z,10.02
2022-08-09T06:45:20.429Z,9.18
2022-08-09T06:47:57.897Z,9.02
2022-08-09T06:50:32.926Z,9.40
2022-08-09T06:53:02.159Z,10.45
2022-08-09T06:55:35.001Z,10.50
2022-08-09T06:58:05.539Z,10.73
2022-08-09T07:00:56.138Z,10.05
2022-08-09T07:03:29.750Z,10.45
2022-08-09T07:06:05.547Z,9.80
2022-08-09T07:08:37.355Z,10.00
2022-08-09T07:11:12.738Z,9.75
2022-08-09T07:14:04.133Z,8.48
2022-08-09T07:16:41.821Z,10.23
2022-08-09T07:19:18.606Z,11.50
2022-08-09T07:21:57.654Z,9.93
2022-08-09T07:24:32.710Z,10.25
2022-08-09T07:27:27.360Z,10.20
2022-08-09T07:30:02.194Z,10.63
2022-08-09T07:32:34.865Z,10.65
2022-08-09T07:35:10.485Z,11.02
2022-08-09T07:37:48.079Z,10.00
2022-08-09T07:40:26.735Z,10.85
2022-08-09T07:43:02.082Z,10.05
2022-08-09T07:45:38.148Z,9.13
2022-08-09T07:48:25.481Z,10.02
2022-08-09T07:52:03.311Z,10.45
2022-08-09T07:54:05.383Z,10.73
2022-08-09T07:56:48.697Z,10.48
2022-08-09T07:59:34.683Z,10.75
2022-08-09T08:02:19.207Z,9.27
2022-08-09T08:04:53.677Z,13.07
2022-08-09T08:08:42.869Z,10.20
2022-08-09T08:10:13.897Z,11.35
2022-08-09T08:12:50.530Z,11.55
2022-08-09T08:15:23.079Z,9.52
2022-08-09T08:17:58.166Z,11.13
2022-08-09T08:20:33.716Z,10.90
2022-08-09T08:25:54.155Z,10.77
2022-08-09T08:28:40.675Z,11.20
2022-08-09T08:31:14.575Z,10.77
2022-08-09T08:33:52.964Z,9.25
2022-08-09T08:36:30.703Z,10.00
2022-08-09T08:39:00.469Z,9.65
2022-08-09T08:41:50.750Z,10.10
2022-08-09T08:44:26.864Z,10.48
2022-08-09T08:47:05.043Z,10.40
2022-08-09T08:49:49.350Z,9.10
2022-08-09T08:52:57.532Z,8.70
2022-08-09T08:55:23.241Z,11.93
2022-08-09T08:58:01.279Z,11.82
2022-08-09T09:00:34.957Z,11.52
2022-08-09T09:03:11.092Z,11.43
2022-08-09T09:05:59.178Z,10.88
2022-08-09T09:08:42.453Z,11.93
2022-08-09T09:11:17.598Z,10.75
2022-08-09T09:14:01.497Z,9.80
2022-08-09T09:16:35.990Z,11.68
2022-08-09T09:19:40.668Z,10.55
2022-08-09T09:22:26.731Z,10.50
2022-08-09T09:26:04.125Z,11.07
2022-08-09T09:28:06.380Z,10.80
2022-08-09T09:30:55.441Z,9.60
2022-08-09T09:33:44.306Z,10.48
2022-08-09T09:36:20.822Z,10.07
2022-08-09T09:38:59.811Z,9.25
2022-08-09T09:41:49.216Z,7.32
2022-08-09T09:44:33.855Z,7.18
2022-08-09T09:47:11.824Z,10.82
2022-08-09T09:49:56.695Z,9.88
2022-08-09T09:52:53.591Z,7.13
2022-08-09T09:55:33.245Z,8.88
2022-08-09T09:58:19.490Z,10.85
2022-08-09T10:01:00.089Z,10.48
2022-08-09T10:03:44.310Z,8.60
2022-08-09T10:06:13.820Z,8.55
2022-08-09T10:08:57.071Z,7.63
2022-08-09T10:12:12.143Z,9.07
2022-08-09T10:14:34.024Z,8.40
2022-08-09T10:17:40.304Z,7.47
2022-08-09T10:20:35.840Z,7.00
2022-08-09T10:23:23.844Z,6.40
2022-08-09T10:26:08.203Z,6.82
2022-08-09T10:28:48.720Z,8.30
2022-08-09T10:34:32.638Z,8.18
2022-08-09T10:37:03.124Z,7.47
2022-08-09T10:39:40.626Z,6.90
2022-08-09T10:42:42.560Z,7.10
2022-08-09T10:48:34.087Z,7.22
2022-08-09T10:51:41.281Z,7.35
2022-08-09T10:54:14.363Z,7.55
2022-08-09T10:56:43.908Z,6.72
2022-08-09T10:59:31.347Z,6.90
2022-08-09T11:03:27.953Z,7.05
2022-08-09T11:05:24.870Z,6.82
2022-08-09T11:08:47.513Z,7.35
2022-08-09T11:11:24.263Z,7.55
2022-08-09T11:14:38.204Z,6.25
2022-08-09T11:17:45.646Z,7.18
2022-08-09T11:20:22.676Z,7.55
2022-08-09T11:22:58.704Z,7.38
2022-08-09T11:25:44.789Z,7.85
2022-08-09T11:28:55.890Z,7.43
2022-08-09T11:31:53.047Z,8.02
2022-08-09T11:34:51.530Z,7.88
2022-08-09T11:37:40.841Z,7.35
2022-08-09T11:40:42.617Z,6.70
2022-08-09T11:43:39.806Z,6.45
2022-08-09T11:46:12.646Z,5.90
2022-08-09T11:49:00.648Z,7.30
2022-08-09T11:52:56.959Z,6.63
2022-08-09T11:54:30.001Z,6.25
2022-08-09T11:58:00.135Z,6.20
2022-08-09T12:00:33.277Z,6.20
2022-08-09T12:03:50.330Z,6.30
2022-08-09T12:05:59.749Z,6.28
2022-08-09T12:08:30.168Z,6.32
2022-08-09T12:11:00.766Z,6.00
2022-08-09T12:14:08.218Z,5.82
2022-08-09T12:16:42.878Z,6.00
2022-08-09T12:19:15.623Z,6.22
2022-08-09T12:21:51.974Z,5.65
2022-08-09T12:24:26.850Z,5.53
2022-08-09T12:29:12.072Z,5.15
2022-08-09T12:32:48.386Z,5.07
2022-08-09T12:35:21.729Z,5.35
2022-08-09T12:37:54.909Z,4.70
2022-08-09T12:40:56.046Z,5.03
2022-08-09T12:44:06.554Z,4.55
2022-08-09T12:46:22.262Z,4.50
2022-08-09T12:48:56.861Z,4.05
2022-08-09T12:51:30.443Z,4.00
2022-08-09T12:54:20.239Z,4.03
2022-08-09T12:56:54.566Z,4.00
2022-08-09T12:59:39.810Z,3.70
2022-08-09T13:02:16.905Z,4.38
2022-08-09T13:05:02.364Z,5.10
2022-08-09T13:07:51.624Z,4.63
2022-08-09T13:10:34.810Z,5.70
2022-08-09T13:13:08.917Z,4.70
2022-08-09T13:16:01.576Z,4.28
2022-08-09T13:18:43.092Z,4.38
2022-08-09T13:22:36.326Z,3.88
2022-08-09T13:24:53.245Z,4.60
2022-08-09T13:27:48.825Z,4.60
2022-08-09T13:31:10.912Z,4.57
2022-08-09T13:33:52.234Z,3.92
2022-08-09T13:36:39.507Z,4.30
2022-08-09T13:41:50.638Z,5.10
2022-08-09T13:42:13.564Z,4.45
2022-08-09T13:44:46.201Z,4.25
2022-08-09T13:47:31.153Z,4.63
2022-08-09T13:50:30.987Z,4.38
2022-08-09T13:53:00.581Z,3.83
2022-08-09T13:55:32.934Z,4.13
2022-08-09T13:58:05.078Z,4.68
2022-08-09T14:00:49.944Z,4.50
2022-08-09T14:04:03.610Z,4.55
2022-08-09T14:06:25.661Z,4.45
2022-08-09T14:08:58.239Z,4.03
2022-08-09T14:14:24.857Z,5.10
2022-08-09T14:17:02.481Z,4.32
2022-08-09T14:19:35.169Z,4.45
2022-08-09T14:22:05.472Z,4.45
2022-08-09T14:24:33.963Z,4.20
2022-08-09T14:27:19.705Z,4.60
2022-08-09T14:30:34.700Z,5.15
2022-08-09T14:32:38.835Z,4.90
2022-08-09T14:35:10.079Z,4.65
2022-08-09T14:38:01.468Z,4.80
2022-08-09T14:41:01.186Z,4.82
2022-08-09T14:43:23.066Z,4.00
2022-08-09T14:46:54.918Z,4.53
2022-08-09T14:48:40.379Z,5.00
2022-08-09T14:51:13.082Z,4.57
2022-08-09T14:53:46.833Z,4.72
2022-08-09T14:56:26.878Z,4.40
2022-08-09T14:58:57.879Z,3.95
2022-08-09T15:01:25.939Z,4.47
2022-08-09T15:03:57.915Z,4.55
2022-08-09T15:06:29.042Z,4.60
2022-08-09T15:09:01.935Z,4.70
2022-08-09T15:11:35.037Z,4.63
2022-08-09T15:14:12.970Z,4.07
2022-08-09T15:16:43.376Z,4.35
2022-08-09T15:19:26.053Z,4.72
2022-08-09T15:22:02.163Z,4.70
2022-08-09T15:24:34.556Z,4.72
2022-08-09T15:27:05.583Z,4.35
2022-08-09T15:30:58.870Z,4.93
2022-08-09T15:32:31.179Z,5.75
2022-08-09T15:35:01.456Z,4.82
2022-08-09T15:37:56.869Z,6.25
2022-08-09T15:40:35.921Z,5.50
2022-08-09T15:43:06.042Z,5.50
2022-08-09T15:46:07.662Z,5.22
2022-08-09T15:48:36.102Z,5.65
2022-08-09T15:51:30.406Z,5.63
2022-08-09T15:54:07.401Z,5.57
2022-08-09T15:56:50.270Z,6.50
2022-08-09T15:59:24.309Z,6.30
2022-08-09T16:02:09.335Z,6.00
2022-08-09T16:04:42.842Z,6.50
2022-08-09T16:07:11.700Z,6.10
2022-08-09T16:09:51.212Z,5.72
2022-08-09T16:12:26.995Z,6.20
2022-08-09T16:15:04.285Z,6.40
2022-08-09T16:17:53.691Z,6.25
2022-08-09T16:20:30.075Z,6.03
2022-08-09T16:23:01.350Z,7.03
2022-08-09T16:25:40.246Z,6.75
2022-08-09T16:28:13.696Z,6.70
2022-08-09T16:30:58.900Z,6.55
2022-08-09T16:33:34.945Z,6.95
2022-08-09T16:36:13.068Z,6.95
2022-08-09T16:38:51.453Z,7.00
2022-08-09T16:41:39.266Z,6.63
2022-08-09T16:44:16.834Z,6.97
2022-08-09T16:46:55.182Z,6.88
2022-08-09T16:50:31.986Z,6.57
2022-08-09T16:52:25.466Z,7.00
2022-08-09T16:54:59.269Z,6.63
2022-08-09T16:58:07.968Z,6.95
2022-08-09T17:00:21.789Z,6.85
2022-08-09T17:06:08.008Z,6.72
2022-08-09T17:08:44.044Z,6.97
2022-08-09T17:11:08.141Z,6.28
2022-08-09T17:13:45.055Z,7.22
2022-08-09T17:16:13.199Z,7.10
2022-08-09T17:18:41.126Z,7.47
2022-08-09T17:21:12.853Z,7.80
2022-08-09T17:24:27.833Z,7.95
2022-08-09T17:26:38.258Z,8.05
2022-08-09T17:29:11.641Z,8.48
2022-08-09T17:31:51.001Z,8.00
2022-08-09T17:35:04.096Z,8.45
2022-08-09T17:37:19.467Z,8.27
2022-08-09T17:39:53.601Z,9.10
2022-08-09T17:42:41.273Z,9.88
2022-08-09T17:45:26.866Z,9.68
2022-08-09T17:48:02.426Z,10.23
2022-08-09T17:50:36.426Z,8.68
2022-08-09T17:53:19.649Z,9.55
2022-08-09T17:55:57.650Z,8.48
2022-08-09T17:58:30.957Z,9.68
2022-08-09T18:01:04.287Z,8.57
2022-08-09T18:03:35.656Z,9.23
2022-08-09T18:06:04.257Z,9.10
2022-08-09T18:08:43.921Z,8.70
2022-08-09T18:11:16.357Z,9.05
2022-08-09T18:13:56.534Z,8.75
2022-08-09T18:16:32.123Z,8.80
2022-08-09T18:20:54.308Z,9.15
2022-08-09T18:21:57.370Z,8.27
2022-08-09T18:24:28.943Z,8.35
2022-08-09T18:30:41.930Z,8.32
2022-08-09T18:32:26.879Z,7.47
2022-08-09T18:34:57.211Z,8.85
2022-08-09T18:37:47.590Z,8.65
2022-08-09T18:40:18.559Z,8.88
2022-08-09T18:42:55.150Z,9.75
2022-08-09T18:46:51.018Z,11.25
2022-08-09T18:48:17.877Z,11.13
2022-08-09T18:50:46.164Z,9.18
2022-08-09T18:53:16.430Z,10.05
2022-08-09T18:55:56.200Z,8.90
2022-08-09T18:58:38.932Z,8.00
2022-08-09T19:01:07.040Z,8.48
2022-08-09T19:04:00.914Z,8.00
2022-08-09T19:06:28.366Z,8.57
2022-08-09T19:09:03.224Z,8.50
2022-08-09T19:11:38.618Z,8.35
2022-08-09T19:14:16.043Z,9.23
2022-08-09T19:16:54.573Z,9.25
2022-08-09T19:19:28.182Z,9.55
2022-08-09T19:22:06.799Z,8.88
2022-08-09T19:25:09.542Z,8.50
2022-08-09T19:27:38.144Z,9.02
2022-08-09T19:30:22.344Z,9.18
2022-08-09T19:33:01.726Z,9.20
2022-08-09T19:35:57.216Z,8.30
2022-08-09T19:38:24.445Z,8.95
2022-08-09T19:40:56.077Z,8.70
2022-08-09T19:44:01.219Z,9.50
2022-08-09T19:46:16.199Z,9.38
2022-08-09T19:49:02.552Z,9.60
2022-08-09T19:51:40.202Z,9.15
2022-08-09T19:54:22.357Z,9.60
2022-08-09T19:56:58.216Z,10.48
2022-08-09T20:04:07.637Z,10.00
2022-08-09T20:05:17.016Z,9.50
2022-08-09T20:07:58.762Z,9.35
2022-08-09T20:10:33.965Z,9.88
2022-08-09T20:13:05.925Z,10.25
2022-08-09T20:16:38.242Z,10.48
2022-08-09T20:18:29.013Z,9.65
2022-08-09T20:21:00.337Z,9.73
2022-08-09T20:23:39.205Z,9.50
2022-08-09T20:26:13.265Z,10.45
2022-08-09T20:28:49.767Z,10.35
2022-08-09T20:31:17.932Z,10.50
2022-08-09T20:33:58.230Z,10.15
2022-08-09T20:36:32.567Z,10.88
2022-08-09T20:39:28.952Z,12.18
2022-08-09T20:42:01.101Z,10.77
2022-08-09T20:44:35.822Z,10.52
2022-08-09T20:47:23.849Z,10.32
2022-08-09T20:50:02.673Z,10.18
2022-08-09T20:52:34.004Z,10.10
2022-08-09T20:55:12.562Z,10.18
2022-08-09T20:58:07.732Z,10.45
2022-08-09T21:00:37.103Z,10.10
2022-08-09T21:03:16.730Z,10.57
2022-08-09T21:05:58.576Z,10.30
2022-08-09T21:08:36.699Z,10.40
2022-08-09T21:14:00.346Z,10.80
2022-08-09T21:16:30.544Z,10.47
2022-08-09T21:20:02.464Z,11.35
2022-08-09T21:21:57.231Z,11.85
2022-08-09T21:24:33.762Z,11.23
2022-08-09T21:27:10.232Z,11.05
2022-08-09T21:29:55.211Z,11.88
2022-08-09T21:32:33.467Z,11.23
2022-08-09T21:35:10.783Z,12.23
2022-08-09T21:37:56.874Z,12.18
2022-08-09T21:40:33.740Z,11.88
2022-08-09T21:43:02.954Z,11.77
2022-08-09T21:45:39.164Z,11.02
2022-08-09T21:48:13.525Z,12.63
2022-08-09T21:50:49.717Z,11.77
2022-08-09T21:53:40.045Z,11.98
2022-08-09T21:56:15.123Z,12.45
2022-08-09T21:59:01.701Z,11.75
2022-08-09T22:01:44.823Z,12.75
2022-08-09T22:04:55.102Z,13.48
2022-08-09T22:07:23.268Z,11.90
2022-08-09T22:09:53.957Z,12.02
2022-08-09T22:12:24.771Z,12.18
2022-08-09T22:15:00.944Z,12.15
2022-08-09T22:17:36.747Z,11.95
2022-08-09T22:20:17.099Z,11.18
2022-08-09T22:22:55.738Z,12.38
2022-08-09T22:26:07.195Z,13.18
2022-08-09T22:28:29.726Z,12.18
2022-08-09T22:31:04.805Z,12.63
2022-08-09T22:33:48.580Z,12.35
2022-08-09T22:36:19.812Z,11.25
2022-08-09T22:38:49.453Z,11.60
2022-08-09T22:41:16.741Z,12.88
2022-08-09T22:44:01.471Z,12.07
2022-08-09T22:48:14.402Z,11.80
2022-08-09T22:49:25.741Z,12.85
2022-08-09T22:52:00.681Z,12.65
2022-08-09T22:54:30.564Z,13.23
2022-08-09T22:57:01.288Z,12.43
2022-08-09T22:59:56.072Z,12.23
2022-08-09T23:02:22.827Z,13.52
2022-08-09T23:04:55.317Z,12.73
2022-08-09T23:08:22.916Z,12.48
2022-08-09T23:10:43.089Z,11.90
2022-08-09T23:13:16.099Z,13.50
2022-08-09T23:16:03.096Z,12.05
2022-08-09T23:18:33.811Z,13.38
2022-08-09T23:21:01.602Z,12.88
2022-08-09T23:23:32.833Z,12.00
2022-08-09T23:26:02.553Z,13.07
2022-08-09T23:28:32.433Z,12.70
2022-08-09T23:31:03.608Z,11.90
2022-08-09T23:33:35.301Z,11.90
2022-08-09T23:36:07.641Z,13.13
2022-08-09T23:38:48.868Z,12.80
2022-08-09T23:41:28.681Z,12.30
2022-08-09T23:44:09.551Z,13.10
2022-08-09T23:46:37.016Z,13.23
2022-08-09T23:49:05.027Z,13.82
2022-08-09T23:51:34.321Z,13.52
2022-08-09T23:54:06.295Z,12.60
2022-08-09T23:56:52.270Z,13.90
2022-08-09T23:59:26.312Z,13.00
